sensor_id;sensor_type;location;lat;lon;timestamp;pressure;altitude;pressure_sealevel;temperature;humidity
31483;BME280;18103;52.246;8.052;2023-04-15T00:01:01;99718.78;;;7.49;74.33
31483;BME280;18103;52.246;8.052;2023-04-15T00:03:27;99721.41;;;7.49;74.11
31483;BME280;18103;52.246;8.052;2023-04-15T00:05:52;99712.47;;;7.52;73.29
31483;BME280;18103;52.246;8.052;2023-04-15T00:08:18;99722.00;;;7.42;73.62
31483;BME280;18103;52.246;8.052;2023-04-15T00:10:44;99721.13;;;7.30;74.16
31483;BME280;18103;52.246;8.052;2023-04-15T00:13:13;99728.31;;;7.39;73.89
31483;BME280;18103;52.246;8.052;2023-04-15T00:15:45;99719.94;;;7.34;73.14
31483;BME280;18103;52.246;8.052;2023-04-15T00:18:11;99725.06;;;7.35;73.44
31483;BME280;18103;52.246;8.052;2023-04-15T00:20:36;99717.53;;;7.31;74.10
31483;BME280;18103;52.246;8.052;2023-04-15T00:23:06;99706.09;;;7.32;73.39
31483;BME280;18103;52.246;8.052;2023-04-15T00:25:32;99711.47;;;7.30;72.95
31483;BME280;18103;52.246;8.052;2023-04-15T00:27:57;99709.78;;;7.29;73.97
31483;BME280;18103;52.246;8.052;2023-04-15T00:30:22;99708.00;;;7.30;73.72
31483;BME280;18103;52.246;8.052;2023-04-15T00:32:53;99711.22;;;7.33;73.58
31483;BME280;18103;52.246;8.052;2023-04-15T00:35:19;99719.41;;;7.17;74.38
31483;BME280;18103;52.246;8.052;2023-04-15T00:37:44;99710.34;;;7.22;73.79
31483;BME280;18103;52.246;8.052;2023-04-15T00:40:18;99716.47;;;7.22;72.99
31483;BME280;18103;52.246;8.052;2023-04-15T00:42:51;99712.13;;;7.10;74.60
31483;BME280;18103;52.246;8.052;2023-04-15T00:45:16;99704.84;;;7.13;75.26
31483;BME280;18103;52.246;8.052;2023-04-15T00:47:42;99705.06;;;7.10;75.06
31483;BME280;18103;52.246;8.052;2023-04-15T00:50:08;99706.72;;;7.00;75.94
31483;BME280;18103;52.246;8.052;2023-04-15T00:52:37;99703.03;;;7.02;75.70
31483;BME280;18103;52.246;8.052;2023-04-15T00:55:02;99706.09;;;6.96;75.36
31483;BME280;18103;52.246;8.052;2023-04-15T00:57:32;99704.63;;;6.92;75.73
31483;BME280;18103;52.246;8.052;2023-04-15T01:00:00;99705.25;;;6.96;75.30
31483;BME280;18103;52.246;8.052;2023-04-15T01:02:30;99709.59;;;6.84;75.95
31483;BME280;18103;52.246;8.052;2023-04-15T01:05:02;99704.47;;;6.82;75.33
31483;BME280;18103;52.246;8.052;2023-04-15T01:07:28;99700.25;;;6.93;75.30
31483;BME280;18103;52.246;8.052;2023-04-15T01:09:53;99704.53;;;6.94;75.46
31483;BME280;18103;52.246;8.052;2023-04-15T01:12:19;99705.81;;;6.88;76.25
31483;BME280;18103;52.246;8.052;2023-04-15T01:14:45;99707.97;;;6.83;76.36
31483;BME280;18103;52.246;8.052;2023-04-15T01:17:12;99711.41;;;6.83;76.36
31483;BME280;18103;52.246;8.052;2023-04-15T01:19:38;99707.22;;;6.81;75.51
31483;BME280;18103;52.246;8.052;2023-04-15T01:22:04;99719.50;;;6.80;75.72
31483;BME280;18103;52.246;8.052;2023-04-15T01:24:34;99708.84;;;6.71;75.97
31483;BME280;18103;52.246;8.052;2023-04-15T01:27:01;99708.84;;;6.71;76.00
31483;BME280;18103;52.246;8.052;2023-04-15T01:29:26;99701.63;;;6.61;76.69
31483;BME280;18103;52.246;8.052;2023-04-15T01:31:55;99711.31;;;6.61;76.85
31483;BME280;18103;52.246;8.052;2023-04-15T01:34:21;99709.63;;;6.60;76.61
31483;BME280;18103;52.246;8.052;2023-04-15T01:36:48;99708.91;;;6.58;76.60
31483;BME280;18103;52.246;8.052;2023-04-15T01:39:16;99706.00;;;6.49;76.77
31483;BME280;18103;52.246;8.052;2023-04-15T01:41:42;99712.75;;;6.65;75.88
31483;BME280;18103;52.246;8.052;2023-04-15T01:44:07;99708.34;;;6.65;75.39
31483;BME280;18103;52.246;8.052;2023-04-15T01:46:35;99710.06;;;6.54;75.33
31483;BME280;18103;52.246;8.052;2023-04-15T01:49:01;99709.97;;;6.55;76.98
31483;BME280;18103;52.246;8.052;2023-04-15T01:51:26;99714.00;;;6.35;77.70
31483;BME280;18103;52.246;8.052;2023-04-15T01:53:52;99711.88;;;6.40;77.70
31483;BME280;18103;52.246;8.052;2023-04-15T01:56:21;99715.06;;;6.32;77.27
31483;BME280;18103;52.246;8.052;2023-04-15T01:58:46;99716.41;;;6.25;77.94
31483;BME280;18103;52.246;8.052;2023-04-15T02:01:15;99721.66;;;6.25;78.14
31483;BME280;18103;52.246;8.052;2023-04-15T02:03:41;99724.41;;;6.24;77.08
31483;BME280;18103;52.246;8.052;2023-04-15T02:06:06;99723.69;;;6.22;76.86
31483;BME280;18103;52.246;8.052;2023-04-15T02:08:32;99715.31;;;6.16;77.08
31483;BME280;18103;52.246;8.052;2023-04-15T02:10:59;99726.19;;;6.23;77.04
31483;BME280;18103;52.246;8.052;2023-04-15T02:13:27;99729.34;;;6.15;77.20
31483;BME280;18103;52.246;8.052;2023-04-15T02:15:57;99723.19;;;6.04;77.19
31483;BME280;18103;52.246;8.052;2023-04-15T02:18:23;99726.72;;;6.15;76.57
31483;BME280;18103;52.246;8.052;2023-04-15T02:20:51;99728.94;;;6.09;77.34
31483;BME280;18103;52.246;8.052;2023-04-15T02:23:20;99723.03;;;6.18;76.14
31483;BME280;18103;52.246;8.052;2023-04-15T02:25:46;99730.59;;;6.23;76.32
31483;BME280;18103;52.246;8.052;2023-04-15T02:28:11;99730.19;;;6.16;76.15
31483;BME280;18103;52.246;8.052;2023-04-15T02:30:39;99724.97;;;6.03;76.71
31483;BME280;18103;52.246;8.052;2023-04-15T02:33:07;99733.78;;;6.02;76.59
31483;BME280;18103;52.246;8.052;2023-04-15T02:35:32;99731.03;;;6.04;78.00
31483;BME280;18103;52.246;8.052;2023-04-15T02:38:03;99737.44;;;5.99;77.11
31483;BME280;18103;52.246;8.052;2023-04-15T02:40:31;99730.19;;;5.90;77.53
31483;BME280;18103;52.246;8.052;2023-04-15T02:42:57;99736.50;;;5.88;77.31
31483;BME280;18103;52.246;8.052;2023-04-15T02:45:22;99737.00;;;5.93;77.17
31483;BME280;18103;52.246;8.052;2023-04-15T02:47:54;99744.34;;;5.88;77.59
31483;BME280;18103;52.246;8.052;2023-04-15T02:50:21;99749.47;;;5.89;77.89
31483;BME280;18103;52.246;8.052;2023-04-15T02:52:47;99749.59;;;5.88;77.69
31483;BME280;18103;52.246;8.052;2023-04-15T02:55:13;99733.75;;;5.89;76.84
31483;BME280;18103;52.246;8.052;2023-04-15T02:57:38;99749.47;;;5.89;76.90
31483;BME280;18103;52.246;8.052;2023-04-15T03:00:06;99746.53;;;5.94;77.22
31483;BME280;18103;52.246;8.052;2023-04-15T03:02:37;99747.16;;;5.85;77.85
31483;BME280;18103;52.246;8.052;2023-04-15T03:05:03;99751.34;;;5.74;78.02
31483;BME280;18103;52.246;8.052;2023-04-15T03:07:31;99755.53;;;5.64;78.46
31483;BME280;18103;52.246;8.052;2023-04-15T03:09:59;99753.66;;;5.66;77.89
31483;BME280;18103;52.246;8.052;2023-04-15T03:12:24;99750.00;;;5.56;79.15
31483;BME280;18103;52.246;8.052;2023-04-15T03:14:50;99747.59;;;5.53;78.89
31483;BME280;18103;52.246;8.052;2023-04-15T03:17:15;99740.22;;;5.45;78.87
31483;BME280;18103;52.246;8.052;2023-04-15T03:19:41;99735.94;;;5.57;78.38
31483;BME280;18103;52.246;8.052;2023-04-15T03:22:08;99740.34;;;5.56;78.78
31483;BME280;18103;52.246;8.052;2023-04-15T03:24:36;99735.09;;;5.43;78.91
31483;BME280;18103;52.246;8.052;2023-04-15T03:27:01;99741.50;;;5.52;78.28
31483;BME280;18103;52.246;8.052;2023-04-15T03:29:29;99743.91;;;5.55;77.34
31483;BME280;18103;52.246;8.052;2023-04-15T03:31:57;99739.72;;;5.53;78.33
31483;BME280;18103;52.246;8.052;2023-04-15T03:34:23;99738.66;;;5.42;78.10
31483;BME280;18103;52.246;8.052;2023-04-15T03:36:48;99740.22;;;5.32;78.50
31483;BME280;18103;52.246;8.052;2023-04-15T03:39:13;99735.59;;;5.36;78.77
31483;BME280;18103;52.246;8.052;2023-04-15T03:41:41;99743.75;;;5.31;79.08
31483;BME280;18103;52.246;8.052;2023-04-15T03:44:06;99746.34;;;5.18;78.76
31483;BME280;18103;52.246;8.052;2023-04-15T03:46:32;99744.13;;;5.12;79.73
31483;BME280;18103;52.246;8.052;2023-04-15T03:48:57;99743.44;;;5.23;79.21
31483;BME280;18103;52.246;8.052;2023-04-15T03:51:27;99745.22;;;5.22;78.09
31483;BME280;18103;52.246;8.052;2023-04-15T03:53:55;99744.13;;;5.12;79.42
31483;BME280;18103;52.246;8.052;2023-04-15T03:56:21;99728.44;;;5.12;79.51
31483;BME280;18103;52.246;8.052;2023-04-15T03:58:46;99730.25;;;5.24;78.51
31483;BME280;18103;52.246;8.052;2023-04-15T04:01:11;99729.31;;;5.25;78.52
31483;BME280;18103;52.246;8.052;2023-04-15T04:03:40;99726.25;;;5.19;78.86
31483;BME280;18103;52.246;8.052;2023-04-15T04:06:06;99728.44;;;5.12;80.02
31483;BME280;18103;52.246;8.052;2023-04-15T04:08:32;99732.28;;;5.06;80.01
31483;BME280;18103;52.246;8.052;2023-04-15T04:10:57;99728.63;;;5.09;80.41
31483;BME280;18103;52.246;8.052;2023-04-15T04:13:23;99736.59;;;5.07;79.86
31483;BME280;18103;52.246;8.052;2023-04-15T04:15:51;99735.34;;;5.13;80.49
31483;BME280;18103;52.246;8.052;2023-04-15T04:18:16;99742.25;;;5.14;80.35
31483;BME280;18103;52.246;8.052;2023-04-15T04:20:41;99743.41;;;5.10;80.44
31483;BME280;18103;52.246;8.052;2023-04-15T04:23:07;99742.69;;;5.08;80.69
31483;BME280;18103;52.246;8.052;2023-04-15T04:25:32;99737.34;;;5.09;80.63
31483;BME280;18103;52.246;8.052;2023-04-15T04:27:58;99752.38;;;5.06;80.87
31483;BME280;18103;52.246;8.052;2023-04-15T04:30:23;99749.78;;;5.06;80.20
31483;BME280;18103;52.246;8.052;2023-04-15T04:32:51;99754.06;;;5.07;79.15
31483;BME280;18103;52.246;8.052;2023-04-15T04:35:16;99750.44;;;5.09;79.45
31483;BME280;18103;52.246;8.052;2023-04-15T04:37:42;99760.56;;;5.14;79.03
31483;BME280;18103;52.246;8.052;2023-04-15T04:40:08;99758.66;;;5.03;79.19
31483;BME280;18103;52.246;8.052;2023-04-15T04:42:33;99763.16;;;5.01;80.18
31483;BME280;18103;52.246;8.052;2023-04-15T04:44:59;99755.22;;;5.03;80.41
31483;BME280;18103;52.246;8.052;2023-04-15T04:47:24;99762.75;;;5.07;79.13
31483;BME280;18103;52.246;8.052;2023-04-15T04:49:52;99765.25;;;5.09;80.51
31483;BME280;18103;52.246;8.052;2023-04-15T04:52:20;99760.81;;;4.96;80.51
31483;BME280;18103;52.246;8.052;2023-04-15T04:54:50;99774.38;;;5.16;79.57
31483;BME280;18103;52.246;8.052;2023-04-15T04:57:15;99766.53;;;5.16;80.03
31483;BME280;18103;52.246;8.052;2023-04-15T04:59:41;99770.84;;;5.17;79.77
31483;BME280;18103;52.246;8.052;2023-04-15T05:02:08;99774.81;;;5.23;79.28
31483;BME280;18103;52.246;8.052;2023-04-15T05:04:34;99785.63;;;5.31;79.41
31483;BME280;18103;52.246;8.052;2023-04-15T05:07:06;99779.56;;;5.30;80.39
31483;BME280;18103;52.246;8.052;2023-04-15T05:09:32;99777.91;;;5.42;80.09
31483;BME280;18103;52.246;8.052;2023-04-15T05:12:00;99784.94;;;5.42;80.04
31483;BME280;18103;52.246;8.052;2023-04-15T05:14:25;99786.69;;;5.41;80.52
31483;BME280;18103;52.246;8.052;2023-04-15T05:16:54;99779.16;;;5.49;80.33
31483;BME280;18103;52.246;8.052;2023-04-15T05:19:19;99775.84;;;5.60;80.63
31483;BME280;18103;52.246;8.052;2023-04-15T05:21:44;99785.06;;;5.53;81.30
31483;BME280;18103;52.246;8.052;2023-04-15T05:24:12;99787.34;;;5.58;80.93
31483;BME280;18103;52.246;8.052;2023-04-15T05:26:42;99781.41;;;5.56;81.61
31483;BME280;18103;52.246;8.052;2023-04-15T05:29:07;99789.59;;;5.64;81.51
31483;BME280;18103;52.246;8.052;2023-04-15T05:31:32;99791.56;;;5.73;81.05
31483;BME280;18103;52.246;8.052;2023-04-15T05:34:00;99798.50;;;5.87;81.14
31483;BME280;18103;52.246;8.052;2023-04-15T05:36:25;99800.69;;;5.80;81.90
31483;BME280;18103;52.246;8.052;2023-04-15T05:38:52;99806.78;;;5.94;80.43
31483;BME280;18103;52.246;8.052;2023-04-15T05:41:19;99802.69;;;5.90;81.46
31483;BME280;18103;52.246;8.052;2023-04-15T05:43:47;99809.41;;;5.94;80.97
31483;BME280;18103;52.246;8.052;2023-04-15T05:46:13;99813.31;;;6.01;81.02
31483;BME280;18103;52.246;8.052;2023-04-15T05:48:38;99820.84;;;6.06;81.21
31483;BME280;18103;52.246;8.052;2023-04-15T05:51:06;99816.56;;;6.05;82.08
31483;BME280;18103;52.246;8.052;2023-04-15T05:53:32;99812.13;;;6.18;81.54
31483;BME280;18103;52.246;8.052;2023-04-15T05:55:57;99809.53;;;6.31;81.20
31483;BME280;18103;52.246;8.052;2023-04-15T05:58:25;99814.34;;;6.24;81.00
31483;BME280;18103;52.246;8.052;2023-04-15T06:00:51;99822.66;;;6.31;82.09
31483;BME280;18103;52.246;8.052;2023-04-15T06:03:19;99820.53;;;6.36;82.53
31483;BME280;18103;52.246;8.052;2023-04-15T06:05:47;99833.22;;;6.42;82.68
31483;BME280;18103;52.246;8.052;2023-04-15T06:08:17;99828.47;;;6.47;82.46
31483;BME280;18103;52.246;8.052;2023-04-15T06:10:46;99832.78;;;6.48;83.25
31483;BME280;18103;52.246;8.052;2023-04-15T06:13:13;99827.00;;;6.56;82.56
31483;BME280;18103;52.246;8.052;2023-04-15T06:15:41;99838.09;;;6.60;82.36
31483;BME280;18103;52.246;8.052;2023-04-15T06:18:06;99834.97;;;6.67;82.09
31483;BME280;18103;52.246;8.052;2023-04-15T06:20:31;99832.81;;;6.73;82.34
31483;BME280;18103;52.246;8.052;2023-04-15T06:23:01;99835.25;;;6.76;82.91
31483;BME280;18103;52.246;8.052;2023-04-15T06:25:27;99839.00;;;6.84;81.51
31483;BME280;18103;52.246;8.052;2023-04-15T06:27:52;99835.09;;;6.90;82.26
31483;BME280;18103;52.246;8.052;2023-04-15T06:30:18;99851.25;;;6.97;82.51
31483;BME280;18103;52.246;8.052;2023-04-15T06:32:43;99842.75;;;6.93;82.17
31483;BME280;18103;52.246;8.052;2023-04-15T06:35:11;99838.03;;;6.98;82.57
31483;BME280;18103;52.246;8.052;2023-04-15T06:37:36;99842.94;;;7.03;82.06
31483;BME280;18103;52.246;8.052;2023-04-15T06:40:04;99844.50;;;7.06;82.19
31483;BME280;18103;52.246;8.052;2023-04-15T06:42:32;99840.75;;;7.21;82.52
31483;BME280;18103;52.246;8.052;2023-04-15T06:45:01;99841.47;;;7.23;82.98
31483;BME280;18103;52.246;8.052;2023-04-15T06:47:29;99846.69;;;7.36;80.79
31483;BME280;18103;52.246;8.052;2023-04-15T06:49:54;99844.63;;;7.28;80.91
31483;BME280;18103;52.246;8.052;2023-04-15T06:52:19;99843.09;;;7.37;80.96
31483;BME280;18103;52.246;8.052;2023-04-15T06:54:45;99846.56;;;7.38;81.16
31483;BME280;18103;52.246;8.052;2023-04-15T06:57:13;99846.28;;;7.53;80.68
31483;BME280;18103;52.246;8.052;2023-04-15T06:59:38;99844.31;;;7.44;81.43
31483;BME280;18103;52.246;8.052;2023-04-15T07:02:03;99839.41;;;7.40;81.88
31483;BME280;18103;52.246;8.052;2023-04-15T07:04:29;99845.72;;;7.37;82.17
31483;BME280;18103;52.246;8.052;2023-04-15T07:06:54;99841.44;;;7.36;82.08
31483;BME280;18103;52.246;8.052;2023-04-15T07:09:24;99850.47;;;7.56;81.82
31483;BME280;18103;52.246;8.052;2023-04-15T07:11:55;99849.88;;;7.64;81.33
31483;BME280;18103;52.246;8.052;2023-04-15T07:14:20;99851.41;;;7.55;82.66
31483;BME280;18103;52.246;8.052;2023-04-15T07:16:45;99852.84;;;7.59;82.49
31483;BME280;18103;52.246;8.052;2023-04-15T07:19:11;99855.94;;;7.53;82.39
31483;BME280;18103;52.246;8.052;2023-04-15T07:21:38;99848.56;;;7.58;82.29
31483;BME280;18103;52.246;8.052;2023-04-15T07:24:04;99854.31;;;7.63;82.56
31483;BME280;18103;52.246;8.052;2023-04-15T07:26:29;99857.75;;;7.64;82.73
31483;BME280;18103;52.246;8.052;2023-04-15T07:28:55;99856.16;;;7.74;82.31
31483;BME280;18103;52.246;8.052;2023-04-15T07:31:23;99849.13;;;7.86;81.47
31483;BME280;18103;52.246;8.052;2023-04-15T07:33:48;99856.88;;;7.87;82.21
31483;BME280;18103;52.246;8.052;2023-04-15T07:36:16;99853.19;;;7.90;82.54
31483;BME280;18103;52.246;8.052;2023-04-15T07:38:41;99861.22;;;8.00;81.66
31483;BME280;18103;52.246;8.052;2023-04-15T07:41:07;99859.44;;;8.00;82.55
31483;BME280;18103;52.246;8.052;2023-04-15T07:43:33;99852.00;;;7.94;82.41
31483;BME280;18103;52.246;8.052;2023-04-15T07:45:58;99855.50;;;8.06;82.17
31483;BME280;18103;52.246;8.052;2023-04-15T07:48:24;99851.56;;;8.00;82.43
31483;BME280;18103;52.246;8.052;2023-04-15T07:50:49;99864.25;;;8.18;82.49
31483;BME280;18103;52.246;8.052;2023-04-15T07:53:17;99866.16;;;8.16;82.94
31483;BME280;18103;52.246;8.052;2023-04-15T07:55:45;99862.44;;;8.07;82.67
31483;BME280;18103;52.246;8.052;2023-04-15T07:58:12;99860.19;;;8.14;82.83
31483;BME280;18103;52.246;8.052;2023-04-15T08:00:40;99863.31;;;8.19;82.50
31483;BME280;18103;52.246;8.052;2023-04-15T08:03:08;99870.94;;;8.22;82.73
31483;BME280;18103;52.246;8.052;2023-04-15T08:05:34;99865.19;;;8.17;83.90
31483;BME280;18103;52.246;8.052;2023-04-15T08:07:59;99875.25;;;8.23;83.37
31483;BME280;18103;52.246;8.052;2023-04-15T08:10:25;99879.34;;;8.27;83.24
31483;BME280;18103;52.246;8.052;2023-04-15T08:12:53;99874.06;;;8.16;84.11
31483;BME280;18103;52.246;8.052;2023-04-15T08:15:19;99868.69;;;8.40;82.57
31483;BME280;18103;52.246;8.052;2023-04-15T08:17:45;99874.66;;;8.31;82.79
31483;BME280;18103;52.246;8.052;2023-04-15T08:20:13;99876.94;;;8.35;83.15
31483;BME280;18103;52.246;8.052;2023-04-15T08:22:40;99884.59;;;8.27;84.55
31483;BME280;18103;52.246;8.052;2023-04-15T08:25:06;99883.28;;;8.33;83.46
31483;BME280;18103;52.246;8.052;2023-04-15T08:27:33;99885.78;;;8.34;83.70
31483;BME280;18103;52.246;8.052;2023-04-15T08:29:58;99880.03;;;8.40;83.49
31483;BME280;18103;52.246;8.052;2023-04-15T08:32:24;99886.78;;;8.45;83.86
31483;BME280;18103;52.246;8.052;2023-04-15T08:34:50;99885.78;;;8.34;84.45
31483;BME280;18103;52.246;8.052;2023-04-15T08:37:16;99888.19;;;8.37;84.62
31483;BME280;18103;52.246;8.052;2023-04-15T08:39:46;99885.09;;;8.44;84.68
31483;BME280;18103;52.246;8.052;2023-04-15T08:42:16;99884.47;;;8.40;84.85
31483;BME280;18103;52.246;8.052;2023-04-15T08:44:46;99892.03;;;8.45;84.65
31483;BME280;18103;52.246;8.052;2023-04-15T08:47:13;99896.72;;;8.52;84.55
31483;BME280;18103;52.246;8.052;2023-04-15T08:49:41;99891.31;;;8.43;85.38
31483;BME280;18103;52.246;8.052;2023-04-15T08:52:09;99895.63;;;8.44;85.21
31483;BME280;18103;52.246;8.052;2023-04-15T08:54:37;99896.09;;;8.49;85.01
31483;BME280;18103;52.246;8.052;2023-04-15T08:57:05;99898.28;;;8.55;84.84
31483;BME280;18103;52.246;8.052;2023-04-15T08:59:31;99888.59;;;8.67;84.99
31483;BME280;18103;52.246;8.052;2023-04-15T09:01:56;99899.72;;;8.70;84.81
31483;BME280;18103;52.246;8.052;2023-04-15T09:04:22;99899.94;;;8.56;85.07
31483;BME280;18103;52.246;8.052;2023-04-15T09:06:50;99903.91;;;8.73;84.88
31483;BME280;18103;52.246;8.052;2023-04-15T09:09:16;99910.25;;;8.70;85.36
31483;BME280;18103;52.246;8.052;2023-04-15T09:11:44;99911.56;;;8.76;85.00
31483;BME280;18103;52.246;8.052;2023-04-15T09:14:09;99908.44;;;8.71;85.09
31483;BME280;18103;52.246;8.052;2023-04-15T09:19:26;99916.47;;;8.69;85.50
31483;BME280;18103;52.246;8.052;2023-04-15T09:21:56;99918.34;;;8.67;85.53
31483;BME280;18103;52.246;8.052;2023-04-15T09:24:23;99920.03;;;8.68;85.41
31483;BME280;18103;52.246;8.052;2023-04-15T09:26:52;99918.97;;;8.71;85.31
31483;BME280;18103;52.246;8.052;2023-04-15T09:29:23;99923.28;;;8.72;85.31
31483;BME280;18103;52.246;8.052;2023-04-15T09:31:48;99921.34;;;8.63;85.78
31483;BME280;18103;52.246;8.052;2023-04-15T09:34:14;99923.84;;;8.64;86.27
31483;BME280;18103;52.246;8.052;2023-04-15T09:39:11;99932.84;;;8.73;85.73
31483;BME280;18103;52.246;8.052;2023-04-15T09:41:40;99928.19;;;8.77;85.99
31483;BME280;18103;52.246;8.052;2023-04-15T09:44:24;99932.84;;;8.73;85.81
31483;BME280;18103;52.246;8.052;2023-04-15T09:46:52;99929.72;;;8.68;86.34
31483;BME280;18103;52.246;8.052;2023-04-15T09:49:19;99932.97;;;8.83;86.37
31483;BME280;18103;52.246;8.052;2023-04-15T09:51:45;99936.81;;;8.90;86.59
31483;BME280;18103;52.246;8.052;2023-04-15T09:54:11;99928.16;;;8.99;85.50
31483;BME280;18103;52.246;8.052;2023-04-15T09:56:38;99942.31;;;8.98;85.83
31483;BME280;18103;52.246;8.052;2023-04-15T09:59:11;99940.38;;;9.00;85.89
31483;BME280;18103;52.246;8.052;2023-04-15T10:01:37;99947.91;;;9.05;85.41
31483;BME280;18103;52.246;8.052;2023-04-15T10:04:07;99943.63;;;9.04;85.54
31483;BME280;18103;52.246;8.052;2023-04-15T10:06:33;99951.53;;;9.04;85.75
31483;BME280;18103;52.246;8.052;2023-04-15T10:09:01;99937.03;;;8.87;86.20
31483;BME280;18103;52.246;8.052;2023-04-15T10:11:28;99944.06;;;9.09;86.17
31483;BME280;18103;52.246;8.052;2023-04-15T10:13:56;99951.72;;;9.01;86.02
31483;BME280;18103;52.246;8.052;2023-04-15T10:16:26;99942.41;;;8.97;86.08
31483;BME280;18103;52.246;8.052;2023-04-15T10:18:55;99945.06;;;9.08;86.16
31483;BME280;18103;52.246;8.052;2023-04-15T10:21:21;99951.72;;;9.01;86.57
31483;BME280;18103;52.246;8.052;2023-04-15T10:23:47;99949.09;;;9.01;86.16
31483;BME280;18103;52.246;8.052;2023-04-15T10:26:14;99952.84;;;8.98;86.36
31483;BME280;18103;52.246;8.052;2023-04-15T10:28:41;99954.03;;;9.05;86.52
31483;BME280;18103;52.246;8.052;2023-04-15T10:31:07;99962.16;;;9.02;86.10
31483;BME280;18103;52.246;8.052;2023-04-15T10:33:33;99957.72;;;9.14;85.64
31483;BME280;18103;52.246;8.052;2023-04-15T10:35:59;99963.47;;;9.08;86.29
31483;BME280;18103;52.246;8.052;2023-04-15T10:41:25;99966.56;;;9.02;86.56
31483;BME280;18103;52.246;8.052;2023-04-15T10:44:03;99956.66;;;9.05;86.67
31483;BME280;18103;52.246;8.052;2023-04-15T10:46:37;99958.22;;;9.08;87.08
31483;BME280;18103;52.246;8.052;2023-04-15T10:49:24;99960.59;;;9.22;86.46
31483;BME280;18103;52.246;8.052;2023-04-15T10:51:56;99965.25;;;9.19;87.00
31483;BME280;18103;52.246;8.052;2023-04-15T10:57:14;99965.50;;;9.16;86.95
31483;BME280;18103;52.246;8.052;2023-04-15T11:05:11;99972.06;;;9.21;87.54
31483;BME280;18103;52.246;8.052;2023-04-15T11:18:09;99972.06;;;9.21;87.39
31483;BME280;18103;52.246;8.052;2023-04-15T11:20:37;99977.22;;;9.12;87.70
31483;BME280;18103;52.246;8.052;2023-04-15T11:23:04;99973.38;;;9.27;86.91
31483;BME280;18103;52.246;8.052;2023-04-15T11:25:32;99980.47;;;9.15;87.14
31483;BME280;18103;52.246;8.052;2023-04-15T11:27:59;99981.19;;;9.06;87.36
31483;BME280;18103;52.246;8.052;2023-04-15T11:30:31;99986.19;;;9.09;87.20
31483;BME280;18103;52.246;8.052;2023-04-15T11:32:59;99986.69;;;9.14;87.30
31483;BME280;18103;52.246;8.052;2023-04-15T11:35:28;99989.06;;;9.17;86.91
31483;BME280;18103;52.246;8.052;2023-04-15T11:37:53;99989.81;;;9.08;87.61
31483;BME280;18103;52.246;8.052;2023-04-15T11:40:28;99989.06;;;9.17;87.31
31483;BME280;18103;52.246;8.052;2023-04-15T11:48:16;100001.53;;;9.15;87.49
31483;BME280;18103;52.246;8.052;2023-04-15T11:50:41;100005.38;;;9.22;87.21
31483;BME280;18103;52.246;8.052;2023-04-15T11:53:09;100005.72;;;9.18;87.24
31483;BME280;18103;52.246;8.052;2023-04-15T11:55:45;100013.38;;;9.21;87.08
31483;BME280;18103;52.246;8.052;2023-04-15T11:58:24;100014.56;;;9.17;87.01
31483;BME280;18103;52.246;8.052;2023-04-15T12:00:58;100012.53;;;9.09;87.72
31483;BME280;18103;52.246;8.052;2023-04-15T12:06:16;100016.47;;;9.15;87.45
31483;BME280;18103;52.246;8.052;2023-04-15T12:08:56;100026.31;;;9.01;87.51
31483;BME280;18103;52.246;8.052;2023-04-15T12:13:54;100022.72;;;9.02;87.78
31483;BME280;18103;52.246;8.052;2023-04-15T12:16:21;100032.41;;;9.02;87.73
31483;BME280;18103;52.246;8.052;2023-04-15T12:18:51;100028.94;;;9.01;88.14
31483;BME280;18103;52.246;8.052;2023-04-15T12:21:21;100028.56;;;9.06;87.86
31483;BME280;18103;52.246;8.052;2023-04-15T12:23:51;100034.66;;;9.06;88.21
31483;BME280;18103;52.246;8.052;2023-04-15T12:26:17;100037.78;;;9.12;87.98
31483;BME280;18103;52.246;8.052;2023-04-15T12:28:53;100044.13;;;9.09;87.69
31483;BME280;18103;52.246;8.052;2023-04-15T12:31:19;100041.16;;;9.02;88.22
31483;BME280;18103;52.246;8.052;2023-04-15T12:33:49;100046.41;;;9.02;88.51
31483;BME280;18103;52.246;8.052;2023-04-15T12:36:18;100053.19;;;8.94;88.48
31483;BME280;18103;52.246;8.052;2023-04-15T12:38:43;100050.81;;;9.02;88.38
31483;BME280;18103;52.246;8.052;2023-04-15T12:41:09;100054.66;;;8.98;88.39
31483;BME280;18103;52.246;8.052;2023-04-15T12:43:36;100056.94;;;9.02;88.38
31483;BME280;18103;52.246;8.052;2023-04-15T12:46:02;100059.78;;;8.99;88.19
31483;BME280;18103;52.246;8.052;2023-04-15T12:48:27;100058.84;;;9.00;88.63
31483;BME280;18103;52.246;8.052;2023-04-15T12:50:55;100059.31;;;8.94;88.80
31483;BME280;18103;52.246;8.052;2023-04-15T12:53:23;100057.53;;;8.95;88.85
31483;BME280;18103;52.246;8.052;2023-04-15T12:55:48;100070.94;;;9.03;89.12
31483;BME280;18103;52.246;8.052;2023-04-15T12:58:13;100077.66;;;9.07;88.36
31483;BME280;18103;52.246;8.052;2023-04-15T13:00:39;100075.84;;;9.07;88.05
31483;BME280;18103;52.246;8.052;2023-04-15T13:03:04;100073.56;;;9.03;88.42
31483;BME280;18103;52.246;8.052;2023-04-15T13:05:33;100080.53;;;9.04;88.44
31483;BME280;18103;52.246;8.052;2023-04-15T13:07:58;100072.47;;;8.94;89.02
31483;BME280;18103;52.246;8.052;2023-04-15T13:10:23;100077.75;;;9.05;88.54
31483;BME280;18103;52.246;8.052;2023-04-15T13:12:49;100086.50;;;9.06;88.69
31483;BME280;18103;52.246;8.052;2023-04-15T13:15:17;100084.47;;;8.98;89.17
31483;BME280;18103;52.246;8.052;2023-04-15T13:17:46;100098.94;;;9.04;88.45
31483;BME280;18103;52.246;8.052;2023-04-15T13:20:12;100102.41;;;9.04;88.48
31483;BME280;18103;52.246;8.052;2023-04-15T13:22:40;100100.03;;;9.13;88.16
31483;BME280;18103;52.246;8.052;2023-04-15T13:25:10;100095.47;;;9.15;88.24
31483;BME280;18103;52.246;8.052;2023-04-15T13:27:38;100096.31;;;9.04;88.73
31483;BME280;18103;52.246;8.052;2023-04-15T13:30:04;100102.16;;;8.96;88.79
31483;BME280;18103;52.246;8.052;2023-04-15T13:32:30;100099.63;;;8.95;89.01
31483;BME280;18103;52.246;8.052;2023-04-15T13:34:58;100104.69;;;9.09;88.58
31483;BME280;18103;52.246;8.052;2023-04-15T13:37:27;100110.03;;;8.96;89.31
31483;BME280;18103;52.246;8.052;2023-04-15T13:39:53;100104.53;;;8.99;88.80
31483;BME280;18103;52.246;8.052;2023-04-15T13:42:18;100107.19;;;9.11;88.17
31483;BME280;18103;52.246;8.052;2023-04-15T13:44:46;100112.69;;;9.07;87.86
31483;BME280;18103;52.246;8.052;2023-04-15T13:47:11;100115.44;;;9.06;88.61